Historyczne dane pomiarowe

Dodano dane terminowe – wersja testowa.

Dane z okresu 1951-2019

Wersja bazy: 1.34 [2019-03-16, lista zmian], aktualizacja planowana na 2019-04-15

Dane meteo z obszaru Polski uzyskane na podstawie danych udostępnionych przez Instytut Meteorologii i Gospodarki Wodnej – Państwowy Instytut Badawczy.

 

Wybierz Datę:    

       

TemperaturaWilgotnośćZachmurzenieWiatrCiśnienieWidzialnośćZjawiska
 Data    tng td wb rh cc ccl cl cm ch dir g1 g2 mslp ppp      
1999-07-21 00:00:00 12.5--- 10.7 11.589wxwx0wx--1011.7 989.5 0.0---wx
1999-07-21 01:00:00 12.3--- 10.9 11.591wxwxwx0wx--1011.6 989.4----wx
1999-07-21 02:00:00 12.0--- 10.6 11.291wxwxwx0wx--1011.6 989.4----wx
1999-07-21 03:00:00 12.6--- 11.0 11.790wxwxwxwx0wx--1011.1 988.9----wx
1999-07-21 04:00:00 16.3--- 14.0 14.986wxwxwxwx0wx--1010.2 988.3----wx
1999-07-21 05:00:00 19.1--- 14.9 16.577wxwxwxwx0wx--1009.7 988.0----wx
1999-07-21 06:00:00 20.7--- 15.8 17.674wxwxwxwx0wx--1009.5 988.0 0.0---wx
1999-07-21 07:00:00 20.8--- 16.1 17.875wxwxwxwx1wx--1009.3 987.8----wx
1999-07-21 08:00:00 22.6--- 14.8 17.761wxwxwxwx1wx--1009.3 987.9----wx
1999-07-21 09:00:00 24.8--- 17.2 19.863wxwxwxwx1wx--1008.6 987.4----wx
1999-07-21 10:00:00 26.2--- 17.5 20.459wxwxwxwxwx1wx--1008.3 987.2----wx
1999-07-21 11:00:00 27.0--- 17.4 20.656wxwxwxwxwx1wx--1008.0 986.9----wx
1999-07-21 12:00:00 26.8--- 16.8 20.254wxwxwxwxwx3wx--1007.3 986.2 0.0---wx
1999-07-21 13:00:00 28.4--- 18.3 21.654wxwxwxwx4wx--1006.7 985.8----wx
1999-07-21 14:00:00 28.4--- 17.3 21.051wxwxwxwx5wx--1006.4 985.5----wx
1999-07-21 15:00:00 24.8--- 18.9 20.870wxwxwx2wx--1006.7 985.5----wx
1999-07-21 16:00:00 26.8--- 16.4 20.053wxwxwx3wx--1006.3 985.3----wxw1
1999-07-21 17:00:00 18.0--- 16.4 17.091wxwxwx8wx--1007.9 986.2----wxw1
1999-07-21 18:00:00 18.8--- 17.6 18.093wxwxwx2wx--1008.1 986.4 7.5---wxw1
1999-07-21 19:00:00 18.8--- 17.3 17.891wxwxwx5wx--1009.1 987.4----wxw1
1999-07-21 20:00:00 18.2--- 16.3 17.089wxwxwx2wx--1008.3 986.6----wxw1
1999-07-21 21:00:00 17.5--- 16.7 17.095wxwxwx2wx--1008.3 986.5----wxw1
1999-07-21 22:00:00 17.0--- 16.4 16.696wxwxwx2wx--1008.4 986.6----wx
1999-07-21 23:00:00 17.0--- 16.4 16.696wxwxwx1wx--1008.6 986.8----wx

 

Źródłem pochodzenia danych jest Instytut Meteorologii i Gospodarki Wodnej – Państwowy Instytut Badawczy. Dane Instytutu Meteorologii i Gospodarki Wodnej – Państwowego Instytutu Badawczego zostały przetworzone.

Dane źródłowe można odnaleźć na stronie https://dane.imgw.pl